Time;durP1;ratioP1;P1;durP2;ratioP2;P2;SDS_P1;SDS_P2;PMS_P1;PMS_P2;Temp;Humidity;BMP_temperature;BMP_pressure;BME280_temperature;BME280_humidity;BME280_pressure;Samples;Min_cycle;Max_cycle;Signal;HPM_P1;HPM_P2
2023/01/04 00:01:59;;;;;;;1.52;1.20;;;16.10;51.50;;;;;;5063179;28;45141;-73
2023/01/04 00:04:26;;;;;;;2.00;1.20;;;16.10;51.50;;;;;;5063258;28;45213;-73
2023/01/04 00:06:53;;;;;;;1.10;1.00;;;16.00;51.50;;;;;;5062620;28;45308;-73
2023/01/04 00:09:20;;;;;;;1.38;1.20;;;16.00;52.10;;;;;;5064741;28;46380;-73
2023/01/04 00:11:47;;;;;;;1.17;1.10;;;16.00;51.50;;;;;;5066105;28;45222;-73
2023/01/04 00:14:16;;;;;;;1.13;1.02;;;16.00;51.60;;;;;;5066281;27;45210;-73
2023/01/04 00:16:44;;;;;;;1.50;0.90;;;15.90;51.50;;;;;;5066594;28;45308;-73
2023/01/04 00:19:11;;;;;;;0.80;0.80;;;15.90;51.50;;;;;;5066024;28;45532;-73
2023/01/04 00:21:38;;;;;;;1.35;0.80;;;15.90;51.60;;;;;;5066193;28;45208;-73
2023/01/04 00:24:05;;;;;;;0.98;0.80;;;15.90;51.60;;;;;;5066224;28;45178;-73
2023/01/04 00:26:33;;;;;;;1.95;0.90;;;15.90;51.70;;;;;;5066345;28;45428;-73
2023/01/04 00:29:00;;;;;;;0.80;0.80;;;15.80;51.60;;;;;;5066109;28;46725;-73
2023/01/04 00:31:27;;;;;;;1.17;1.08;;;15.80;51.60;;;;;;5065969;28;45182;-73
2023/01/04 00:33:55;;;;;;;1.40;1.02;;;15.80;52.40;;;;;;5065964;28;45389;-73
2023/01/04 00:36:22;;;;;;;0.82;0.82;;;15.80;51.80;;;;;;5066375;28;45496;-73
2023/01/04 00:39:05;;;;;;;1.10;1.00;;;15.80;51.70;;;;;;5065837;28;45336;-73
2023/01/04 00:41:33;;;;;;;1.08;0.93;;;15.80;51.80;;;;;;5065929;28;45312;-72
2023/01/04 00:44:02;;;;;;;1.00;0.90;;;15.70;51.70;;;;;;5066027;27;45262;-73
2023/01/04 00:46:28;;;;;;;1.40;1.10;;;15.80;51.70;;;;;;5065996;28;45436;-73
2023/01/04 00:48:57;;;;;;;2.10;1.00;;;15.80;51.60;;;;;;5065714;27;46740;-72
2023/01/04 00:51:24;;;;;;;0.85;0.82;;;15.90;51.50;;;;;;5065741;27;45484;-72
2023/01/04 00:53:51;;;;;;;1.35;1.20;;;15.90;51.30;;;;;;5065754;28;45272;-71
2023/01/04 00:56:18;;;;;;;1.10;1.00;;;16.00;51.20;;;;;;5065250;28;45189;-73
2023/01/04 00:58:45;;;;;;;1.13;1.02;;;16.00;51.10;;;;;;5065605;28;45721;-72
2023/01/04 01:01:11;;;;;;;1.27;1.17;;;16.00;50.90;;;;;;5065648;28;45233;-73
2023/01/04 01:03:38;;;;;;;1.65;1.20;;;16.10;50.80;;;;;;5065618;28;45304;-73
2023/01/04 01:06:07;;;;;;;1.25;1.15;;;16.10;50.70;;;;;;5065816;27;45295;-73
2023/01/04 01:08:34;;;;;;;2.00;1.20;;;16.10;50.70;;;;;;5065468;28;46363;-72
2023/01/04 01:11:03;;;;;;;1.83;1.17;;;16.10;50.70;;;;;;5065712;28;45233;-70
2023/01/04 01:13:30;;;;;;;1.60;1.13;;;16.10;50.60;;;;;;5065652;28;45417;-73
2023/01/04 01:15:57;;;;;;;1.17;1.10;;;16.10;50.60;;;;;;5065687;28;45212;-73
2023/01/04 01:18:23;;;;;;;1.05;1.00;;;16.10;50.60;;;;;;5065364;27;45266;-72
2023/01/04 01:20:50;;;;;;;2.25;1.27;;;16.10;50.60;;;;;;5064776;28;45213;-72
2023/01/04 01:23:18;;;;;;;4.00;1.38;;;16.10;50.60;;;;;;5065567;28;45309;-73
2023/01/04 01:25:45;;;;;;;1.30;1.20;;;16.10;50.60;;;;;;5065626;28;45390;-73
2023/01/04 01:28:12;;;;;;;1.77;1.25;;;16.10;50.60;;;;;;5065000;28;45363;-71
2023/01/04 01:30:42;;;;;;;1.10;1.02;;;16.10;50.60;;;;;;5065214;28;45138;-72
2023/01/04 01:33:08;;;;;;;0.98;0.98;;;16.10;50.70;;;;;;5065074;28;45323;-72
2023/01/04 01:35:35;;;;;;;1.20;1.10;;;16.10;50.70;;;;;;5065482;28;45440;-72
2023/01/04 01:38:02;;;;;;;1.08;1.08;;;16.00;50.70;;;;;;5065078;28;47539;-72
2023/01/04 01:40:30;;;;;;;1.33;1.10;;;16.00;50.70;;;;;;5064369;28;45207;-72
2023/01/04 01:42:57;;;;;;;1.10;1.02;;;16.00;50.70;;;;;;5065374;28;45231;-73
2023/01/04 01:45:29;;;;;;;1.05;0.95;;;16.00;50.70;;;;;;5065254;28;45312;-73
2023/01/04 01:47:58;;;;;;;1.20;1.10;;;16.00;50.70;;;;;;5064938;27;46401;-73
2023/01/04 01:50:26;;;;;;;1.33;1.23;;;16.00;50.70;;;;;;5065063;28;45275;-72
2023/01/04 01:52:54;;;;;;;1.10;1.10;;;15.90;50.70;;;;;;5064923;27;45183;-72
2023/01/04 01:55:20;;;;;;;1.02;0.90;;;15.90;50.70;;;;;;5065252;28;45175;-73
2023/01/04 01:57:49;;;;;;;1.55;0.90;;;15.90;50.80;;;;;;5065110;28;46688;-73
2023/01/04 02:00:16;;;;;;;0.98;0.95;;;15.90;50.80;;;;;;5064942;27;45324;-72
2023/01/04 02:02:47;;;;;;;0.90;0.88;;;15.90;50.70;;;;;;5064906;28;45133;-72
2023/01/04 02:05:13;;;;;;;1.17;1.08;;;15.80;50.80;;;;;;5065121;28;45224;-73
2023/01/04 02:07:40;;;;;;;1.02;1.00;;;15.80;50.90;;;;;;5064761;28;45259;-72
2023/01/04 02:10:08;;;;;;;1.10;0.93;;;15.80;50.80;;;;;;5064501;28;45296;-72
2023/01/04 02:12:35;;;;;;;1.30;1.20;;;15.80;50.80;;;;;;5064706;27;45209;-72
2023/01/04 02:15:03;;;;;;;1.10;1.00;;;15.80;50.80;;;;;;5064786;27;45434;-72
2023/01/04 02:17:36;;;;;;;2.47;1.10;;;15.80;50.80;;;;;;5064750;28;47554;-73
2023/01/04 02:20:26;;;;;;;1.23;1.13;;;15.80;50.80;;;;;;5064505;28;45279;-71
2023/01/04 02:23:14;;;;;;;1.58;1.20;;;15.70;50.80;;;;;;5064642;28;45286;-71
2023/01/04 02:26:08;;;;;;;1.33;1.10;;;15.70;50.80;;;;;;5064876;28;45167;-71
2023/01/04 02:28:44;;;;;;;1.20;1.10;;;15.70;50.80;;;;;;5055834;27;45266;-71
2023/01/04 02:31:30;;;;;;;1.35;1.13;;;15.70;50.80;;;;;;5064321;27;45190;-71
2023/01/04 02:34:00;;;;;;;1.92;1.17;;;15.70;50.80;;;;;;5063935;27;45182;-71
2023/01/04 02:36:31;;;;;;;1.40;1.30;;;15.70;50.80;;;;;;5064907;28;45389;-71
2023/01/04 02:39:03;;;;;;;1.40;0.90;;;15.70;50.70;;;;;;5064208;28;45382;-71
2023/01/04 02:41:33;;;;;;;0.93;0.93;;;15.70;50.50;;;;;;5064338;27;45187;-72
2023/01/04 02:46:53;;;;;;;1.17;0.95;;;15.80;50.40;;;;;;5062138;28;45140;-71
2023/01/04 02:52:04;;;;;;;0.80;0.80;;;15.90;50.90;;;;;;5061536;28;45236;-71
2023/01/04 02:54:31;;;;;;;1.08;1.00;;;15.90;50.20;;;;;;5064366;28;45258;-70
2023/01/04 02:57:16;;;;;;;1.08;0.98;;;15.90;50.20;;;;;;5064373;28;45183;-70
2023/01/04 03:00:07;;;;;;;1.05;0.90;;;15.90;50.10;;;;;;5064155;28;46353;-71
2023/01/04 03:08:22;;;;;;;1.65;1.00;;;16.00;50.10;;;;;;5068100;27;45380;-71
2023/01/04 03:10:50;;;;;;;1.52;0.93;;;16.00;50.10;;;;;;5063837;28;45234;-71
2023/01/04 03:13:18;;;;;;;0.90;0.90;;;15.90;50.00;;;;;;5063715;27;45256;-73
2023/01/04 03:15:46;;;;;;;0.80;0.80;;;15.90;50.10;;;;;;5064118;28;45190;-71
2023/01/04 03:18:16;;;;;;;1.35;0.70;;;15.90;50.10;;;;;;5064132;28;45145;-71
2023/01/04 03:20:43;;;;;;;0.82;0.82;;;15.90;50.10;;;;;;5063754;27;45240;-73
2023/01/04 03:37:07;;;;;;;1.10;1.00;;;15.80;50.20;;;;;;5061301;28;45254;-73
2023/01/04 03:48:28;;;;;;;1.85;0.75;;;15.70;50.30;;;;;;5064060;28;45191;-73
2023/01/04 03:51:00;;;;;;;0.80;0.60;;;15.70;50.30;;;;;;5066686;28;45358;-73
2023/01/04 03:53:27;;;;;;;0.73;0.73;;;15.70;50.30;;;;;;5066093;27;45251;-73
2023/01/04 03:55:54;;;;;;;0.88;0.82;;;15.70;50.40;;;;;;5066375;28;45377;-73
2023/01/04 03:58:20;;;;;;;0.70;0.70;;;15.70;50.40;;;;;;5066186;28;45244;-72
2023/01/04 04:00:47;;;;;;;0.70;0.70;;;15.70;50.40;;;;;;5065861;28;45327;-73
2023/01/04 04:03:14;;;;;;;0.80;0.70;;;15.70;50.40;;;;;;5066187;28;45382;-72
2023/01/04 04:08:28;;;;;;;0.57;0.57;;;15.70;50.50;;;;;;5063748;28;45184;-72
2023/01/04 04:10:55;;;;;;;0.70;0.70;;;15.70;50.50;;;;;;5066632;28;45285;-73
2023/01/04 04:13:22;;;;;;;0.93;0.88;;;15.70;51.20;;;;;;5066069;28;46476;-73
2023/01/04 04:15:49;;;;;;;0.77;0.77;;;15.70;50.60;;;;;;5066132;28;45209;-73
2023/01/04 04:18:16;;;;;;;0.75;0.75;;;15.70;50.60;;;;;;5066160;28;45128;-72
2023/01/04 04:20:42;;;;;;;0.98;0.90;;;15.60;50.60;;;;;;5066384;28;45326;-72
2023/01/04 04:23:09;;;;;;;0.85;0.80;;;15.60;50.60;;;;;;5065943;28;46378;-73
2023/01/04 04:25:37;;;;;;;0.70;0.70;;;15.70;50.70;;;;;;5065910;28;45317;-73
2023/01/04 04:28:05;;;;;;;0.60;0.60;;;15.60;50.60;;;;;;5065871;28;45209;-73
2023/01/04 04:30:32;;;;;;;1.10;0.70;;;15.60;50.70;;;;;;5066195;27;45621;-73
2023/01/04 04:32:59;;;;;;;1.40;0.60;;;15.60;50.70;;;;;;5065740;28;45325;-73
2023/01/04 04:35:25;;;;;;;0.60;0.60;;;15.60;50.80;;;;;;5065761;28;45264;-73
2023/01/04 04:37:52;;;;;;;0.70;0.70;;;15.60;50.80;;;;;;5065869;28;45359;-73
2023/01/04 04:43:01;;;;;;;0.70;0.70;;;15.60;50.90;;;;;;5065293;27;46376;-73
2023/01/04 04:45:28;;;;;;;0.70;0.70;;;15.60;51.00;;;;;;5065843;27;45248;-73
2023/01/04 04:47:55;;;;;;;0.85;0.60;;;15.60;51.00;;;;;;5065653;28;45141;-73
2023/01/04 04:50:21;;;;;;;0.50;0.50;;;15.70;50.90;;;;;;5066013;28;45117;-72
2023/01/04 04:52:48;;;;;;;0.75;0.57;;;15.70;51.40;;;;;;5064798;28;46404;-73
2023/01/04 04:55:15;;;;;;;0.70;0.70;;;15.80;50.80;;;;;;5064714;28;45344;-73
2023/01/04 04:57:42;;;;;;;0.80;0.77;;;15.80;50.70;;;;;;5065949;28;45397;-73
2023/01/04 05:00:12;;;;;;;0.73;0.63;;;15.90;50.70;;;;;;5065719;28;45234;-73
2023/01/04 05:02:38;;;;;;;0.60;0.60;;;15.90;50.60;;;;;;5065239;28;45209;-72
2023/01/04 05:05:06;;;;;;;1.77;0.68;;;15.90;50.50;;;;;;5065395;28;45269;-73
2023/01/04 05:07:33;;;;;;;0.50;0.50;;;16.00;50.50;;;;;;5065558;27;45255;-73
2023/01/04 05:10:00;;;;;;;0.43;0.43;;;16.00;50.50;;;;;;5065808;28;45179;-73
2023/01/04 05:15:18;;;;;;;0.65;0.50;;;16.00;50.50;;;;;;5075096;27;45324;-72
2023/01/04 05:17:44;;;;;;;0.68;0.68;;;16.00;51.10;;;;;;5065460;28;45125;-73
2023/01/04 05:20:12;;;;;;;0.57;0.57;;;16.00;50.50;;;;;;5065569;28;45254;-73
2023/01/04 05:22:39;;;;;;;0.60;0.60;;;16.00;50.50;;;;;;5065067;27;46683;-73
2023/01/04 05:25:08;;;;;;;0.57;0.57;;;16.00;50.60;;;;;;5065151;28;45277;-73
2023/01/04 05:27:35;;;;;;;0.63;0.60;;;16.00;50.50;;;;;;5064918;28;45191;-73
2023/01/04 05:32:48;;;;;;;0.50;0.50;;;16.00;50.60;;;;;;5062005;28;45921;-73
2023/01/04 05:35:15;;;;;;;0.60;0.60;;;16.00;50.60;;;;;;5064752;28;45340;-73
2023/01/04 05:37:42;;;;;;;0.63;0.52;;;16.00;50.60;;;;;;5065084;28;45383;-73
2023/01/04 05:40:09;;;;;;;0.50;0.50;;;16.00;50.70;;;;;;5065456;28;45350;-73
2023/01/04 05:42:36;;;;;;;0.55;0.55;;;16.00;50.60;;;;;;5064801;28;46476;-73
2023/01/04 05:45:04;;;;;;;1.05;0.60;;;16.00;50.70;;;;;;5065048;28;45187;-72
2023/01/04 05:47:31;;;;;;;0.63;0.63;;;16.00;50.70;;;;;;5064896;28;45312;-73
2023/01/04 05:49:59;;;;;;;0.55;0.55;;;16.00;50.70;;;;;;5064678;28;45212;-72
2023/01/04 05:52:26;;;;;;;0.85;0.50;;;16.00;50.80;;;;;;5064821;28;45222;-72
2023/01/04 05:54:52;;;;;;;0.63;0.63;;;16.00;50.70;;;;;;5064615;28;45307;-73
2023/01/04 05:57:19;;;;;;;0.65;0.63;;;16.00;50.80;;;;;;5064889;28;45145;-73
2023/01/04 05:59:46;;;;;;;0.85;0.70;;;16.00;50.80;;;;;;5065334;28;45344;-72
2023/01/04 06:02:14;;;;;;;0.43;0.43;;;16.00;50.90;;;;;;5064519;28;46666;-73
2023/01/04 06:04:41;;;;;;;0.65;0.65;;;16.00;50.80;;;;;;5064808;28;45190;-73
2023/01/04 06:07:09;;;;;;;0.60;0.60;;;16.00;50.90;;;;;;5064800;28;45159;-73
2023/01/04 06:09:36;;;;;;;0.40;0.40;;;16.00;50.90;;;;;;5065131;27;45275;-73
2023/01/04 06:12:03;;;;;;;0.70;0.55;;;16.00;50.90;;;;;;5064540;28;45554;-72
2023/01/04 06:14:30;;;;;;;0.65;0.65;;;16.00;51.00;;;;;;5064603;27;45115;-72
2023/01/04 06:16:57;;;;;;;0.52;0.50;;;16.00;51.00;;;;;;5065042;28;45140;-73
2023/01/04 06:19:24;;;;;;;0.50;0.50;;;16.00;51.00;;;;;;5065110;28;45361;-73
2023/01/04 06:21:50;;;;;;;1.05;0.60;;;15.90;51.00;;;;;;5064618;28;46406;-72
2023/01/04 06:24:18;;;;;;;0.45;0.45;;;15.90;51.10;;;;;;5064664;28;45319;-73
2023/01/04 06:26:45;;;;;;;0.50;0.50;;;15.90;51.20;;;;;;5064313;28;45136;-73
2023/01/04 06:29:12;;;;;;;0.65;0.50;;;15.90;51.30;;;;;;5064749;28;45427;-73
2023/01/04 06:31:39;;;;;;;0.50;0.50;;;15.90;51.30;;;;;;5063514;28;45514;-73
2023/01/04 06:34:06;;;;;;;0.43;0.40;;;15.90;51.30;;;;;;5064363;28;45325;-74
2023/01/04 06:36:34;;;;;;;0.85;0.52;;;15.90;51.30;;;;;;5064668;28;45306;-72
2023/01/04 06:39:01;;;;;;;0.57;0.52;;;15.90;51.30;;;;;;5064761;27;45284;-72
2023/01/04 06:41:29;;;;;;;1.17;0.50;;;15.90;51.30;;;;;;5064163;28;46658;-73
2023/01/04 06:43:56;;;;;;;0.47;0.47;;;15.90;51.30;;;;;;5064161;28;45309;-73
2023/01/04 06:46:23;;;;;;;0.50;0.50;;;15.90;51.30;;;;;;5064340;28;45276;-72
2023/01/04 06:48:51;;;;;;;0.55;0.50;;;15.90;51.30;;;;;;5064463;28;45232;-71
2023/01/04 06:51:18;;;;;;;0.35;0.35;;;15.90;51.30;;;;;;5064163;28;47277;-71
2023/01/04 06:53:44;;;;;;;0.40;0.40;;;15.90;51.40;;;;;;5064128;28;45252;-74
2023/01/04 06:56:11;;;;;;;0.98;0.93;;;15.90;51.40;;;;;;5064290;28;45274;-73
2023/01/04 06:58:39;;;;;;;1.77;0.77;;;15.90;51.40;;;;;;5064584;28;45350;-72
2023/01/04 07:01:06;;;;;;;0.60;0.60;;;15.90;51.40;;;;;;5064016;27;45182;-71
2023/01/04 07:03:33;;;;;;;0.50;0.50;;;15.90;51.40;;;;;;5063875;28;45267;-72
2023/01/04 07:06:03;;;;;;;0.85;0.52;;;15.90;51.50;;;;;;5064161;28;45221;-73
2023/01/04 07:08:30;;;;;;;1.10;0.65;;;15.90;51.40;;;;;;5064025;27;45407;-73
2023/01/04 07:10:57;;;;;;;0.70;0.60;;;15.90;51.50;;;;;;5063896;28;46361;-72
2023/01/04 07:13:23;;;;;;;0.60;0.60;;;15.90;51.50;;;;;;5064098;28;45272;-72
2023/01/04 07:15:52;;;;;;;0.82;0.50;;;15.90;51.50;;;;;;5063363;28;45391;-72
2023/01/04 07:18:18;;;;;;;1.35;0.65;;;15.90;51.50;;;;;;5062848;28;45258;-72
2023/01/04 07:20:45;;;;;;;0.82;0.60;;;15.90;51.50;;;;;;5063846;28;47331;-73
2023/01/04 07:23:12;;;;;;;3.17;0.70;;;15.90;51.60;;;;;;5063913;28;45285;-72
2023/01/04 07:25:39;;;;;;;0.60;0.55;;;15.90;51.50;;;;;;5063911;28;45229;-73
2023/01/04 07:28:06;;;;;;;0.70;0.60;;;15.90;51.60;;;;;;5063503;28;45260;-72
2023/01/04 07:30:32;;;;;;;0.60;0.60;;;15.90;51.60;;;;;;5063620;28;46409;-72
2023/01/04 07:33:00;;;;;;;0.85;0.85;;;15.80;51.60;;;;;;5063456;28;45301;-73
2023/01/04 07:35:27;;;;;;;0.63;0.63;;;15.90;51.70;;;;;;5063909;28;45212;-72
2023/01/04 07:37:54;;;;;;;0.80;0.80;;;15.90;51.70;;;;;;5063943;28;45313;-72
2023/01/04 07:40:21;;;;;;;0.85;0.82;;;15.90;51.70;;;;;;5063392;28;45384;-73
2023/01/04 07:42:55;;;;;;;1.42;0.77;;;15.90;51.70;;;;;;5063228;27;45419;-72
2023/01/04 07:45:22;;;;;;;0.60;0.60;;;15.90;51.70;;;;;;5063701;28;45257;-73
2023/01/04 07:47:49;;;;;;;1.00;0.98;;;15.90;51.60;;;;;;5063759;28;45449;-73
2023/01/04 07:50:17;;;;;;;1.20;0.90;;;15.90;51.70;;;;;;5063305;27;46348;-72
2023/01/04 07:52:44;;;;;;;2.63;1.10;;;15.90;51.70;;;;;;5063157;28;45183;-73
2023/01/04 07:55:10;;;;;;;1.40;1.17;;;15.90;51.70;;;;;;5063242;28;45200;-73
2023/01/04 07:57:37;;;;;;;2.92;1.00;;;15.90;51.60;;;;;;5063455;28;45405;-72
2023/01/04 08:00:05;;;;;;;1.27;1.00;;;15.90;51.70;;;;;;5062815;28;45356;-72
2023/01/04 08:02:32;;;;;;;1.70;1.20;;;15.90;51.70;;;;;;5062480;28;45195;-73
2023/01/04 08:04:58;;;;;;;1.33;1.23;;;15.90;51.70;;;;;;5063137;28;45141;-73
2023/01/04 08:07:27;;;;;;;2.08;1.40;;;15.90;51.70;;;;;;5063235;28;45173;-73
2023/01/04 08:09:53;;;;;;;1.13;1.05;;;15.90;51.70;;;;;;5063013;28;45461;-73
2023/01/04 08:12:20;;;;;;;2.38;1.17;;;15.90;51.80;;;;;;5062874;28;45315;-73
2023/01/04 08:14:47;;;;;;;2.30;1.30;;;15.90;51.80;;;;;;5063236;28;45212;-73
2023/01/04 08:17:14;;;;;;;4.25;1.50;;;15.90;51.80;;;;;;5063535;28;45153;-73
2023/01/04 08:19:41;;;;;;;2.53;1.70;;;15.90;51.80;;;;;;5062862;28;45573;-73
2023/01/04 08:22:07;;;;;;;4.18;2.00;;;15.90;51.80;;;;;;5062611;28;45355;-73
2023/01/04 08:24:36;;;;;;;3.35;1.98;;;15.90;51.90;;;;;;5062873;28;45244;-73
2023/01/04 08:27:02;;;;;;;5.25;2.17;;;15.90;51.90;;;;;;5062784;28;45190;-73
2023/01/04 08:29:29;;;;;;;2.58;2.17;;;15.90;51.90;;;;;;5062637;28;45230;-73
2023/01/04 08:31:56;;;;;;;2.35;1.85;;;15.90;51.90;;;;;;5065190;28;45388;-73
2023/01/04 08:34:23;;;;;;;4.88;2.60;;;15.90;52.00;;;;;;5065989;28;45239;-77
2023/01/04 08:36:52;;;;;;;3.63;1.88;;;15.90;52.10;;;;;;5066543;28;45354;-76
2023/01/04 08:39:18;;;;;;;8.25;2.50;;;15.90;53.70;;;;;;5065746;27;46901;-72
2023/01/04 08:41:53;;;;;;;7.28;2.80;;;16.00;54.30;;;;;;5065102;28;45261;-72
2023/01/04 08:44:20;;;;;;;5.68;2.70;;;16.00;54.60;;;;;;5066513;28;45186;-72
2023/01/04 08:46:46;;;;;;;4.82;2.90;;;16.10;55.30;;;;;;5065429;28;45398;-75
2023/01/04 08:49:13;;;;;;;9.57;3.47;;;16.20;55.20;;;;;;5066378;27;46466;-74
2023/01/04 08:51:40;;;;;;;15.13;4.00;;;16.30;55.10;;;;;;5065934;28;45225;-73
2023/01/04 08:54:07;;;;;;;7.68;3.90;;;16.30;54.90;;;;;;5065307;27;45118;-72
2023/01/04 08:56:34;;;;;;;11.32;5.20;;;16.30;54.00;;;;;;5065362;28;45414;-72
2023/01/04 08:59:02;;;;;;;10.95;6.38;;;16.40;53.50;;;;;;5065101;28;45317;-72
2023/01/04 09:01:29;;;;;;;16.30;8.80;;;16.40;53.30;;;;;;5065155;28;45320;-73
2023/01/04 09:03:56;;;;;;;15.30;11.25;;;16.40;53.30;;;;;;5066173;28;45230;-73
2023/01/04 09:06:23;;;;;;;19.38;11.30;;;16.40;53.70;;;;;;5066226;28;45414;-76
2023/01/04 09:08:50;;;;;;;23.13;11.30;;;16.50;53.70;;;;;;5065658;28;46695;-72
2023/01/04 09:11:18;;;;;;;19.42;11.07;;;16.60;54.40;;;;;;5065031;28;45349;-75
2023/01/04 09:13:45;;;;;;;36.40;12.90;;;16.60;53.40;;;;;;5065586;28;45314;-71
2023/01/04 09:16:14;;;;;;;34.13;14.10;;;16.60;53.50;;;;;;5065667;27;45316;-75
2023/01/04 09:18:41;;;;;;;39.08;15.10;;;16.70;53.70;;;;;;5065686;27;45137;-76
2023/01/04 09:21:08;;;;;;;32.65;14.10;;;16.80;53.70;;;;;;5065933;28;45343;-74
2023/01/04 09:23:35;;;;;;;33.42;12.98;;;16.70;53.90;;;;;;5065376;28;45304;-75
2023/01/04 09:26:05;;;;;;;35.60;12.13;;;16.80;54.10;;;;;;5065547;28;45395;-74
2023/01/04 09:28:32;;;;;;;36.92;12.63;;;16.80;54.20;;;;;;5065199;28;46341;-74
2023/01/04 09:30:59;;;;;;;22.70;10.60;;;16.90;54.00;;;;;;5064477;28;45398;-73
2023/01/04 09:33:27;;;;;;;41.10;11.25;;;16.90;53.80;;;;;;5065437;28;45328;-72
2023/01/04 09:35:54;;;;;;;29.73;10.50;;;16.90;54.20;;;;;;5065722;28;45237;-73
2023/01/04 09:38:21;;;;;;;16.02;8.20;;;16.90;54.90;;;;;;5065157;28;45209;-74
2023/01/04 09:40:51;;;;;;;20.50;9.77;;;17.00;54.20;;;;;;5065177;28;45279;-76
2023/01/04 09:43:19;;;;;;;16.70;8.60;;;17.10;54.20;;;;;;5064871;28;45202;-74
2023/01/04 09:45:46;;;;;;;21.98;8.07;;;17.10;53.30;;;;;;5065249;28;45157;-74
2023/01/04 09:48:14;;;;;;;15.30;7.85;;;17.10;53.10;;;;;;5062322;28;46627;-74
2023/01/04 09:50:45;;;;;;;19.73;7.93;;;17.00;52.90;;;;;;5064806;28;45247;-74
2023/01/04 09:53:15;;;;;;;17.85;7.47;;;17.00;52.80;;;;;;5065030;28;45321;-74
2023/01/04 09:55:44;;;;;;;14.48;6.90;;;17.00;52.70;;;;;;5064976;28;45356;-74
2023/01/04 09:58:20;;;;;;;13.88;7.82;;;16.90;52.70;;;;;;5064692;28;46632;-73
2023/01/04 10:00:48;;;;;;;10.05;6.40;;;16.90;52.70;;;;;;5064699;28;45241;-72
2023/01/04 10:03:17;;;;;;;10.60;6.63;;;16.90;52.70;;;;;;5064809;28;45326;-72
2023/01/04 10:05:45;;;;;;;14.50;7.30;;;16.80;52.60;;;;;;5065082;28;45402;-72
2023/01/04 10:08:15;;;;;;;13.27;6.72;;;16.80;52.70;;;;;;5064714;28;47332;-72
2023/01/04 10:10:48;;;;;;;13.75;6.75;;;16.70;52.70;;;;;;5064519;28;45338;-72
2023/01/04 10:13:39;;;;;;;12.32;6.70;;;16.80;53.60;;;;;;5064273;27;45305;-72
2023/01/04 10:16:15;;;;;;;14.57;7.00;;;16.80;54.90;;;;;;5058224;27;45277;-72
2023/01/04 10:18:45;;;;;;;14.68;6.32;;;16.80;54.60;;;;;;5064537;28;45477;-71
2023/01/04 10:21:30;;;;;;;16.70;7.78;;;16.80;55.10;;;;;;5064644;28;45251;-74
2023/01/04 10:24:03;;;;;;;19.52;7.57;;;16.80;54.20;;;;;;5061747;27;44902;-72
2023/01/04 10:26:32;;;;;;;17.95;8.57;;;16.80;54.60;;;;;;5064775;28;45432;-72
2023/01/04 10:29:10;;;;;;;12.52;7.55;;;16.90;54.00;;;;;;5064563;28;45222;-71
2023/01/04 10:31:39;;;;;;;16.27;7.63;;;16.90;53.40;;;;;;5064780;28;45431;-72
2023/01/04 10:34:16;;;;;;;11.40;7.00;;;16.80;53.40;;;;;;5064653;27;45369;-72
2023/01/04 10:36:44;;;;;;;13.52;6.90;;;16.80;53.20;;;;;;5064921;28;45229;-71
2023/01/04 10:39:13;;;;;;;10.25;6.57;;;16.90;53.10;;;;;;5063743;28;45235;-72
2023/01/04 10:41:42;;;;;;;9.80;5.95;;;16.80;53.00;;;;;;5064384;28;45279;-72
2023/01/04 10:44:11;;;;;;;10.82;6.78;;;16.80;53.00;;;;;;5064588;28;45218;-72
2023/01/04 10:46:42;;;;;;;9.77;6.55;;;16.80;52.90;;;;;;5064554;28;45263;-70
2023/01/04 10:49:11;;;;;;;9.95;6.25;;;16.80;52.90;;;;;;5064794;28;45245;-70
2023/01/04 10:51:41;;;;;;;11.85;5.95;;;16.80;52.90;;;;;;5064467;27;45313;-72
2023/01/04 10:54:13;;;;;;;11.25;5.85;;;16.80;52.90;;;;;;5063208;28;45134;-72
2023/01/04 10:56:44;;;;;;;6.88;5.20;;;16.80;52.90;;;;;;5064462;28;45283;-71
2023/01/04 10:59:13;;;;;;;10.68;5.45;;;16.70;52.80;;;;;;5064050;28;46422;-70
2023/01/04 11:01:41;;;;;;;8.43;5.47;;;16.70;52.80;;;;;;5064052;27;45336;-71
2023/01/04 11:04:11;;;;;;;10.23;5.25;;;16.70;52.80;;;;;;5064391;27;45196;-70
2023/01/04 11:06:40;;;;;;;9.82;5.88;;;16.70;52.80;;;;;;5064465;28;45466;-70
2023/01/04 11:09:11;;;;;;;7.93;5.43;;;16.60;52.80;;;;;;5064288;28;45338;-70
2023/01/04 11:11:39;;;;;;;7.82;5.15;;;16.60;52.80;;;;;;5064011;28;45384;-70
2023/01/04 11:14:10;;;;;;;9.25;5.53;;;16.60;52.80;;;;;;5063939;27;45247;-71
2023/01/04 11:16:37;;;;;;;6.53;5.25;;;16.60;52.80;;;;;;5064493;28;45238;-70
2023/01/04 11:19:03;;;;;;;8.05;5.22;;;16.60;52.90;;;;;;5063757;27;46730;-70
2023/01/04 11:21:34;;;;;;;7.40;5.43;;;16.60;52.90;;;;;;5063853;28;45412;-73
2023/01/04 11:24:01;;;;;;;7.18;5.45;;;16.60;52.90;;;;;;5064092;28;45201;-73
2023/01/04 11:26:32;;;;;;;9.40;5.80;;;16.50;52.80;;;;;;5061397;28;45284;-70
2023/01/04 11:29:00;;;;;;;6.88;5.40;;;16.50;52.90;;;;;;5063883;27;45538;-70
2023/01/04 11:31:30;;;;;;;7.78;6.07;;;16.50;52.90;;;;;;5063940;28;45190;-70
2023/01/04 11:33:57;;;;;;;6.03;5.38;;;16.50;52.90;;;;;;5063800;28;45231;-72
2023/01/04 11:36:36;;;;;;;6.82;5.57;;;16.50;52.90;;;;;;5063170;28;45390;-72
2023/01/04 11:39:02;;;;;;;6.75;5.15;;;16.50;52.90;;;;;;5059682;27;45545;-71
2023/01/04 11:41:31;;;;;;;9.82;5.85;;;16.50;53.00;;;;;;5043157;27;45329;-71
2023/01/04 11:43:58;;;;;;;6.97;5.72;;;16.50;53.00;;;;;;5043716;28;45209;-72
2023/01/04 11:46:25;;;;;;;7.13;5.40;;;16.50;53.10;;;;;;5043778;27;45129;-72
2023/01/04 11:48:53;;;;;;;9.05;5.60;;;16.50;53.10;;;;;;5043005;28;45733;-72
2023/01/04 11:51:33;;;;;;;8.27;5.28;;;16.50;53.10;;;;;;5043386;28;45453;-79
2023/01/04 11:54:00;;;;;;;9.85;5.50;;;16.50;53.20;;;;;;5043344;28;45316;-74
2023/01/04 11:56:28;;;;;;;9.35;5.03;;;16.50;53.20;;;;;;5043365;28;45413;-71
2023/01/04 11:59:10;;;;;;;10.02;4.90;;;16.50;53.20;;;;;;5043908;28;46959;-74
2023/01/04 12:01:38;;;;;;;8.13;4.97;;;16.50;53.40;;;;;;5043425;28;45138;-75
2023/01/04 12:04:10;;;;;;;5.22;4.55;;;16.50;53.50;;;;;;5043319;27;45321;-75
2023/01/04 12:06:38;;;;;;;5.55;4.60;;;16.50;53.40;;;;;;5047079;28;45176;-72
2023/01/04 12:09:05;;;;;;;8.48;5.18;;;16.50;53.50;;;;;;5046275;28;45301;-73
2023/01/04 12:11:34;;;;;;;9.32;5.20;;;16.50;53.50;;;;;;5046387;28;45294;-73
2023/01/04 12:14:01;;;;;;;5.63;4.28;;;16.50;53.50;;;;;;5046749;27;45198;-73
2023/01/04 12:16:38;;;;;;;6.07;4.30;;;16.50;53.60;;;;;;5046630;28;45342;-72
2023/01/04 12:19:05;;;;;;;8.75;4.47;;;16.50;53.50;;;;;;5045833;27;45466;-75
2023/01/04 12:21:33;;;;;;;7.22;4.60;;;16.50;53.60;;;;;;5045846;28;45293;-73
2023/01/04 12:24:00;;;;;;;9.48;4.82;;;16.50;53.70;;;;;;5050689;28;45291;-74
2023/01/04 12:26:27;;;;;;;6.13;4.22;;;16.50;53.60;;;;;;5063228;27;45632;-70
2023/01/04 12:29:37;;;;;;;11.23;4.32;;;16.50;53.60;;;;;;5064360;28;45499;-70
2023/01/04 12:32:42;;;;;;;9.18;4.68;;;16.50;53.70;;;;;;5066046;28;45336;-69
2023/01/04 12:36:03;;;;;;;6.35;3.70;;;16.50;53.70;;;;;;5075578;27;45260;-71
2023/01/04 12:39:04;;;;;;;7.25;4.22;;;16.50;53.60;;;;;;5063698;27;45503;-73
2023/01/04 12:42:08;;;;;;;6.70;3.97;;;16.50;53.70;;;;;;5042793;27;45574;-70
2023/01/04 12:45:20;;;;;;;6.38;3.50;;;16.50;53.70;;;;;;4996238;28;45457;-71
2023/01/04 12:50:37;;;;;;;7.03;3.50;;;16.50;53.90;;;;;;5062370;28;45518;-71
2023/01/04 12:53:04;;;;;;;6.75;3.25;;;16.50;53.90;;;;;;5064385;28;45528;-72
2023/01/04 12:55:58;;;;;;;7.90;3.75;;;16.50;53.80;;;;;;5068934;28;45315;-72
2023/01/04 12:58:59;;;;;;;4.68;3.00;;;16.50;53.90;;;;;;5064442;28;45391;-73
2023/01/04 13:01:26;;;;;;;6.68;3.55;;;16.50;53.90;;;;;;5059630;27;45487;-71
2023/01/04 13:03:59;;;;;;;5.63;3.95;;;16.50;53.90;;;;;;5059227;28;45502;-71
2023/01/04 13:06:27;;;;;;;5.50;3.30;;;16.50;53.80;;;;;;5065709;28;45532;-74
2023/01/04 13:08:54;;;;;;;5.50;3.10;;;16.50;53.80;;;;;;5065873;27;45361;-72
2023/01/04 13:11:43;;;;;;;7.93;3.30;;;16.50;53.80;;;;;;5065580;28;45428;-72
2023/01/04 13:14:11;;;;;;;5.05;3.20;;;16.50;53.90;;;;;;5044950;28;46558;-70
2023/01/04 13:16:41;;;;;;;5.60;3.00;;;16.50;54.00;;;;;;5044085;28;45213;-72
2023/01/04 13:19:14;;;;;;;3.45;2.85;;;16.50;53.90;;;;;;5045298;27;45307;-70
2023/01/04 13:21:42;;;;;;;3.65;2.97;;;16.50;54.00;;;;;;5045479;28;45373;-70
2023/01/04 13:24:18;;;;;;;4.63;3.05;;;16.50;54.00;;;;;;5042712;28;46706;-72
2023/01/04 13:26:47;;;;;;;10.90;3.38;;;16.50;54.00;;;;;;5044288;28;45214;-72
2023/01/04 13:29:16;;;;;;;7.03;2.80;;;16.50;54.10;;;;;;5045845;28;45330;-71
2023/01/04 13:31:49;;;;;;;5.47;3.30;;;16.50;54.10;;;;;;5045282;28;45300;-72
2023/01/04 13:34:23;;;;;;;5.07;3.17;;;16.50;54.10;;;;;;5045385;27;46458;-72
2023/01/04 13:37:05;;;;;;;5.88;2.95;;;16.50;54.20;;;;;;5044730;28;45160;-73
2023/01/04 13:39:33;;;;;;;3.42;2.85;;;16.50;54.30;;;;;;5042075;28;45567;-72
2023/01/04 13:42:01;;;;;;;7.35;3.03;;;16.50;54.30;;;;;;5045542;27;45262;-73
2023/01/04 13:44:51;;;;;;;6.07;2.78;;;16.50;54.40;;;;;;5044643;28;45478;-71
2023/01/04 13:47:18;;;;;;;9.70;3.03;;;16.50;54.30;;;;;;5044876;28;45308;-70